createdAt,value
2023-02-21T00:00:51.953Z,6.75
2023-02-21T00:03:37.606Z,6.22
2023-02-21T00:06:22.934Z,6.53
2023-02-21T00:09:08.221Z,6.30
2023-02-21T00:11:53.635Z,6.25
2023-02-21T00:14:39.185Z,5.65
2023-02-21T00:17:24.511Z,6.70
2023-02-21T00:20:09.940Z,5.95
2023-02-21T00:22:55.756Z,6.57
2023-02-21T00:25:40.976Z,6.07
2023-02-21T00:28:26.272Z,6.47
2023-02-21T00:31:11.723Z,6.43
2023-02-21T00:33:57.032Z,7.50
2023-02-21T00:36:42.736Z,6.22
2023-02-21T00:39:27.995Z,7.40
2023-02-21T00:42:13.414Z,7.63
2023-02-21T00:44:58.925Z,8.50
2023-02-21T00:47:44.468Z,7.53
2023-02-21T00:50:30.049Z,6.18
2023-02-21T00:53:15.320Z,7.88
2023-02-21T00:56:00.651Z,6.80
2023-02-21T00:58:46.098Z,6.88
2023-02-21T01:01:31.300Z,6.55
2023-02-21T01:04:17.652Z,6.43
2023-02-21T01:07:02.789Z,5.97
2023-02-21T01:09:48.265Z,6.45
2023-02-21T01:12:33.536Z,6.07
2023-02-21T01:15:18.676Z,6.10
2023-02-21T01:18:03.985Z,6.28
2023-02-21T01:20:49.475Z,6.18
2023-02-21T01:23:34.837Z,5.90
2023-02-21T01:26:20.123Z,5.45
2023-02-21T01:29:06.802Z,6.45
2023-02-21T01:31:52.409Z,6.95
2023-02-21T01:34:37.566Z,6.00
2023-02-21T01:37:22.826Z,6.10
2023-02-21T01:40:07.970Z,6.22
2023-02-21T01:42:53.493Z,5.72
2023-02-21T01:45:41.914Z,5.07
2023-02-21T01:48:29.941Z,6.25
2023-02-21T01:51:15.937Z,5.28
2023-02-21T01:54:01.486Z,5.55
2023-02-21T01:56:47.129Z,5.63
2023-02-21T01:59:32.511Z,5.25
2023-02-21T02:02:39.405Z,5.68
2023-02-21T02:05:24.963Z,5.18
2023-02-21T02:08:10.311Z,5.38
2023-02-21T02:10:55.800Z,5.38
2023-02-21T02:13:49.368Z,5.07
2023-02-21T02:18:54.710Z,5.22
2023-02-21T02:21:50.984Z,5.55
2023-02-21T02:24:41.221Z,5.13
2023-02-21T02:27:26.692Z,5.28
2023-02-21T02:29:56.596Z,5.25
2023-02-21T02:32:42.077Z,5.25
2023-02-21T02:35:23.281Z,5.05
2023-02-21T02:37:57.809Z,4.70
2023-02-21T02:40:54.768Z,5.15
2023-02-21T02:43:32.495Z,5.60
2023-02-21T02:46:02.990Z,5.78
2023-02-21T02:48:41.262Z,5.97
2023-02-21T02:51:10.065Z,5.30
2023-02-21T02:53:36.815Z,5.63
2023-02-21T02:56:10.979Z,5.93
2023-02-21T02:58:42.107Z,5.05
2023-02-21T03:01:15.211Z,5.57
2023-02-21T03:04:04.038Z,5.47
2023-02-21T03:06:53.090Z,5.53
2023-02-21T03:09:59.771Z,5.32
2023-02-21T03:12:37.471Z,4.95
2023-02-21T03:15:20.921Z,5.07
2023-02-21T03:18:16.457Z,5.82
2023-02-21T03:20:43.787Z,5.82
2023-02-21T03:23:11.785Z,5.50
2023-02-21T03:25:38.533Z,5.55
2023-02-21T03:28:05.310Z,5.32
2023-02-21T03:30:32.050Z,5.13
2023-02-21T03:32:58.907Z,5.00
2023-02-21T03:35:29.626Z,5.57
2023-02-21T03:37:56.409Z,5.43
2023-02-21T03:40:25.760Z,5.10
2023-02-21T03:42:53.874Z,5.00
2023-02-21T03:45:20.917Z,5.75
2023-02-21T03:47:47.692Z,5.30
2023-02-21T03:50:14.753Z,5.25
2023-02-21T03:52:41.697Z,5.10
2023-02-21T03:55:09.059Z,4.93
2023-02-21T03:57:36.077Z,5.18
2023-02-21T04:00:03.198Z,5.28
2023-02-21T04:02:29.953Z,5.38
2023-02-21T04:04:56.843Z,4.35
2023-02-21T04:07:23.639Z,4.72
2023-02-21T04:09:50.433Z,4.70
2023-02-21T04:12:17.310Z,4.78
2023-02-21T04:14:44.104Z,5.68
2023-02-21T04:17:10.853Z,5.88
2023-02-21T04:19:37.624Z,6.03
2023-02-21T04:22:04.466Z,5.43
2023-02-21T04:24:31.251Z,5.78
2023-02-21T04:26:58.813Z,5.45
2023-02-21T04:29:25.934Z,4.82
2023-02-21T04:31:53.944Z,4.70
2023-02-21T04:34:21.165Z,4.75
2023-02-21T04:36:48.096Z,4.68
2023-02-21T04:39:15.110Z,4.80
2023-02-21T04:41:41.949Z,4.40
2023-02-21T04:44:08.756Z,4.40
2023-02-21T04:46:35.546Z,4.90
2023-02-21T04:49:02.399Z,5.80
2023-02-21T04:51:29.191Z,4.50
2023-02-21T04:53:56.188Z,5.32
2023-02-21T04:56:25.388Z,4.82
2023-02-21T04:58:52.334Z,4.38
2023-02-21T05:01:20.311Z,4.53
2023-02-21T05:03:47.608Z,4.50
2023-02-21T05:06:19.440Z,4.75
2023-02-21T05:08:46.255Z,4.47
2023-02-21T05:11:13.981Z,4.53
2023-02-21T05:13:41.059Z,4.65
2023-02-21T05:16:07.839Z,4.90
2023-02-21T05:18:34.926Z,4.90
2023-02-21T05:21:03.304Z,5.43
2023-02-21T05:23:36.238Z,5.05
2023-02-21T05:26:06.078Z,5.22
2023-02-21T05:28:33.038Z,5.05
2023-02-21T05:31:02.313Z,4.93
2023-02-21T05:33:29.295Z,5.22
2023-02-21T05:35:56.382Z,5.32
2023-02-21T05:38:24.275Z,4.75
2023-02-21T05:40:51.065Z,5.05
2023-02-21T05:43:17.974Z,5.32
2023-02-21T05:45:44.913Z,5.85
2023-02-21T05:48:11.728Z,5.57
2023-02-21T05:50:39.831Z,5.95
2023-02-21T05:53:07.092Z,6.25
2023-02-21T05:55:33.887Z,6.07
2023-02-21T05:58:00.662Z,6.10
2023-02-21T06:00:29.228Z,6.90
2023-02-21T06:02:56.978Z,6.68
2023-02-21T06:05:24.273Z,11.90
2023-02-21T06:07:51.275Z,6.35
2023-02-21T06:10:18.805Z,5.90
2023-02-21T06:12:45.582Z,5.72
2023-02-21T06:15:13.330Z,5.85
2023-02-21T06:17:41.030Z,4.80
2023-02-21T06:20:09.245Z,5.22
2023-02-21T06:22:36.028Z,6.00
2023-02-21T06:25:02.868Z,4.97
2023-02-21T06:27:29.683Z,5.55
2023-02-21T06:29:56.482Z,8.57
2023-02-21T06:32:23.252Z,8.38
2023-02-21T06:34:52.516Z,6.25
2023-02-21T06:37:19.664Z,8.38
2023-02-21T06:39:46.477Z,7.13
2023-02-21T06:42:17.717Z,6.20
2023-02-21T06:44:45.433Z,6.88
2023-02-21T06:47:12.507Z,5.72
2023-02-21T06:49:39.312Z,6.00
2023-02-21T06:52:06.812Z,6.38
2023-02-21T06:54:33.687Z,6.57
2023-02-21T06:57:01.910Z,6.95
2023-02-21T06:59:29.531Z,6.15
2023-02-21T07:01:56.849Z,5.47
2023-02-21T07:04:24.312Z,5.13
2023-02-21T07:06:51.568Z,5.57
2023-02-21T07:09:18.434Z,4.95
2023-02-21T07:11:47.173Z,5.35
2023-02-21T07:14:14.556Z,6.05
2023-02-21T07:16:41.313Z,5.43
2023-02-21T07:19:08.138Z,6.13
2023-02-21T07:21:34.904Z,5.15
2023-02-21T07:24:01.736Z,5.75
2023-02-21T07:26:28.552Z,5.40
2023-02-21T07:28:55.400Z,5.55
2023-02-21T07:31:22.482Z,5.65
2023-02-21T07:33:49.424Z,5.22
2023-02-21T07:36:16.231Z,5.55
2023-02-21T07:38:43.102Z,5.15
2023-02-21T07:41:09.864Z,5.10
2023-02-21T07:43:36.805Z,4.95
2023-02-21T07:46:03.642Z,5.30
2023-02-21T07:48:30.653Z,5.63
2023-02-21T07:50:57.391Z,5.05
2023-02-21T07:53:24.150Z,5.53
2023-02-21T07:55:50.971Z,5.03
2023-02-21T07:58:19.175Z,5.40
2023-02-21T08:00:47.873Z,5.45
2023-02-21T08:03:15.004Z,5.45
2023-02-21T08:05:41.790Z,5.53
2023-02-21T08:08:09.514Z,5.68
2023-02-21T08:10:36.660Z,5.15
2023-02-21T08:13:03.672Z,5.50
2023-02-21T08:15:30.450Z,4.93
2023-02-21T08:17:57.286Z,4.72
2023-02-21T08:20:24.079Z,5.05
2023-02-21T08:22:50.806Z,3.70
2023-02-21T08:25:17.708Z,4.75
2023-02-21T08:27:45.160Z,4.22
2023-02-21T08:30:14.805Z,4.50
2023-02-21T08:32:41.966Z,4.25
2023-02-21T08:35:08.874Z,4.03
2023-02-21T08:37:37.457Z,4.18
2023-02-21T08:40:05.325Z,4.45
2023-02-21T08:42:32.103Z,3.80
2023-02-21T08:44:58.957Z,3.80
2023-02-21T08:47:25.759Z,3.97
2023-02-21T08:49:52.545Z,3.80
2023-02-21T08:52:21.359Z,4.03
2023-02-21T08:54:48.365Z,3.97
2023-02-21T08:57:15.881Z,5.18
2023-02-21T08:59:45.189Z,3.85
2023-02-21T09:02:16.897Z,4.28
2023-02-21T09:04:44.595Z,3.92
2023-02-21T09:07:18.884Z,4.35
2023-02-21T09:09:45.987Z,4.50
2023-02-21T09:12:13.302Z,4.43
2023-02-21T09:14:41.805Z,4.43
2023-02-21T09:17:10.249Z,4.75
2023-02-21T09:19:37.034Z,4.40
2023-02-21T09:22:06.595Z,4.90
2023-02-21T09:24:33.408Z,3.67
2023-02-21T09:27:00.223Z,3.72
2023-02-21T09:29:31.644Z,3.60
2023-02-21T09:32:04.380Z,3.30
2023-02-21T09:34:31.278Z,3.13
2023-02-21T09:36:58.125Z,3.80
2023-02-21T09:39:24.912Z,3.25
2023-02-21T09:41:53.597Z,3.80
2023-02-21T09:44:25.792Z,3.83
2023-02-21T09:46:57.987Z,4.27
2023-02-21T09:49:30.818Z,3.37
2023-02-21T09:51:57.585Z,4.47
2023-02-21T09:54:41.373Z,3.58
2023-02-21T09:57:14.269Z,3.95
2023-02-21T09:59:41.183Z,3.30
2023-02-21T10:02:14.205Z,3.35
2023-02-21T10:07:36.812Z,3.33
2023-02-21T10:10:32.341Z,3.28
2023-02-21T10:13:29.934Z,3.33
2023-02-21T10:16:06.982Z,2.88
2023-02-21T10:18:33.992Z,3.55
2023-02-21T10:21:06.003Z,3.85
2023-02-21T10:23:42.577Z,3.57
2023-02-21T10:26:12.881Z,3.35
2023-02-21T10:28:54.487Z,3.40
2023-02-21T10:31:34.975Z,2.75
2023-02-21T10:34:07.686Z,2.83
2023-02-21T10:36:35.439Z,3.75
2023-02-21T10:39:10.436Z,2.75
2023-02-21T10:41:39.127Z,2.92
2023-02-21T10:44:31.945Z,2.85
2023-02-21T10:47:17.348Z,3.30
2023-02-21T10:49:56.789Z,2.97
2023-02-21T10:52:23.577Z,3.45
2023-02-21T10:55:19.974Z,2.58
2023-02-21T10:58:08.925Z,2.40
2023-02-21T11:00:42.586Z,2.60
2023-02-21T11:03:27.709Z,2.70
2023-02-21T11:05:58.097Z,2.40
2023-02-21T11:08:40.595Z,2.30
2023-02-21T11:11:08.048Z,2.10
2023-02-21T11:13:36.729Z,2.50
2023-02-21T11:16:16.483Z,2.10
2023-02-21T11:18:43.923Z,1.83
2023-02-21T11:21:20.182Z,1.98
2023-02-21T11:24:03.124Z,2.15
2023-02-21T11:26:46.235Z,1.98
2023-02-21T11:29:18.648Z,1.70
2023-02-21T11:31:45.550Z,1.40
2023-02-21T11:34:13.889Z,1.70
2023-02-21T11:36:45.049Z,1.45
2023-02-21T11:39:29.795Z,1.67
2023-02-21T11:42:03.415Z,1.92
2023-02-21T11:44:41.026Z,1.67
2023-02-21T11:47:19.868Z,1.98
2023-02-21T11:50:01.701Z,1.80
2023-02-21T11:52:52.247Z,2.05
2023-02-21T11:55:22.016Z,2.03
2023-02-21T11:57:58.797Z,2.05
2023-02-21T12:01:01.991Z,1.85
2023-02-21T12:03:39.817Z,1.33
2023-02-21T12:06:29.267Z,1.55
2023-02-21T12:09:21.380Z,1.50
2023-02-21T12:11:50.753Z,1.52
2023-02-21T12:14:40.940Z,1.70
2023-02-21T12:17:24.154Z,1.17
2023-02-21T12:22:28.868Z,1.00
2023-02-21T12:25:12.071Z,1.17
2023-02-21T12:30:27.365Z,1.20
2023-02-21T12:33:21.275Z,1.15
2023-02-21T12:36:42.463Z,1.00
2023-02-21T12:39:22.511Z,1.15
2023-02-21T12:42:00.274Z,0.90
2023-02-21T12:44:33.091Z,1.00
2023-02-21T12:49:57.936Z,1.02
2023-02-21T12:52:46.458Z,1.10
2023-02-21T12:55:22.031Z,1.20
2023-02-21T12:58:01.721Z,0.90
2023-02-21T13:00:56.598Z,0.93
2023-02-21T13:03:44.269Z,0.82
2023-02-21T13:06:20.205Z,1.02
2023-02-21T13:09:16.014Z,1.10
2023-02-21T13:12:09.625Z,0.95
2023-02-21T13:14:57.500Z,1.48
2023-02-21T13:17:24.455Z,0.82
2023-02-21T13:19:56.222Z,0.80
2023-02-21T13:22:56.874Z,1.10
2023-02-21T13:25:53.483Z,0.80
2023-02-21T13:28:25.044Z,0.90
2023-02-21T13:30:53.382Z,0.75
2023-02-21T13:33:50.906Z,0.80
2023-02-21T13:36:23.929Z,0.60
2023-02-21T13:39:32.195Z,0.60
2023-02-21T13:42:06.513Z,0.88
2023-02-21T13:44:42.299Z,0.73
2023-02-21T13:47:15.893Z,0.90
2023-02-21T13:49:52.881Z,0.75
2023-02-21T13:52:23.090Z,0.70
2023-02-21T13:55:21.352Z,0.70
2023-02-21T13:58:01.096Z,0.70
2023-02-21T14:00:27.925Z,0.70
2023-02-21T14:02:58.751Z,0.68
2023-02-21T14:05:26.038Z,0.65
2023-02-21T14:08:03.411Z,0.60
2023-02-21T14:10:41.806Z,0.63
2023-02-21T14:13:36.741Z,0.75
2023-02-21T14:16:12.785Z,0.90
2023-02-21T14:18:39.714Z,0.55
2023-02-21T14:21:36.633Z,0.73
2023-02-21T14:24:11.842Z,0.82
2023-02-21T14:26:46.711Z,0.60
2023-02-21T14:29:16.774Z,1.00
2023-02-21T14:31:58.496Z,0.80
2023-02-21T14:34:47.009Z,0.80
2023-02-21T14:37:32.799Z,0.60
2023-02-21T14:40:11.690Z,1.10
2023-02-21T14:42:44.589Z,0.82
2023-02-21T14:45:11.496Z,0.70
2023-02-21T14:48:09.270Z,1.02
2023-02-21T14:50:44.446Z,0.80
2023-02-21T14:53:38.998Z,0.90
2023-02-21T14:56:08.581Z,0.70
2023-02-21T14:58:55.498Z,1.05
2023-02-21T15:01:39.079Z,0.60
2023-02-21T15:04:20.690Z,0.70
2023-02-21T15:07:14.885Z,0.90
2023-02-21T15:09:41.726Z,1.02
2023-02-21T15:12:13.554Z,0.88
2023-02-21T15:14:42.280Z,0.88
2023-02-21T15:17:20.602Z,0.90
2023-02-21T15:19:48.998Z,0.90
2023-02-21T15:22:25.125Z,0.70
2023-02-21T15:25:10.154Z,1.10
2023-02-21T15:27:50.993Z,0.93
2023-02-21T15:30:18.874Z,1.05
2023-02-21T15:33:14.618Z,1.17
2023-02-21T15:35:46.098Z,1.52
2023-02-21T15:38:22.934Z,1.45
2023-02-21T15:40:51.225Z,1.10
2023-02-21T15:43:36.030Z,1.30
2023-02-21T15:46:03.064Z,1.23
2023-02-21T15:48:29.937Z,1.23
2023-02-21T15:50:59.508Z,1.60
2023-02-21T15:53:27.441Z,1.80
2023-02-21T15:55:54.503Z,1.10
2023-02-21T15:58:44.821Z,1.42
2023-02-21T16:01:18.266Z,1.33
2023-02-21T16:03:49.966Z,1.17
2023-02-21T16:06:23.987Z,1.10
2023-02-21T16:09:30.586Z,1.38
2023-02-21T16:12:12.536Z,1.63
2023-02-21T16:14:41.845Z,1.38
2023-02-21T16:17:25.015Z,1.45
2023-02-21T16:22:27.476Z,1.20
2023-02-21T16:25:12.421Z,1.67
2023-02-21T16:27:40.094Z,1.10
2023-02-21T16:30:08.336Z,1.40
2023-02-21T16:32:39.350Z,1.13
2023-02-21T16:35:06.594Z,1.27
2023-02-21T16:37:33.416Z,1.27
2023-02-21T16:40:00.786Z,1.17
2023-02-21T16:42:27.581Z,1.40
2023-02-21T16:44:54.576Z,1.15
2023-02-21T16:47:21.561Z,1.33
2023-02-21T16:49:48.395Z,1.10
2023-02-21T16:52:16.399Z,1.08
2023-02-21T16:54:43.492Z,1.52
2023-02-21T16:57:10.976Z,1.90
2023-02-21T16:59:37.873Z,1.23
2023-02-21T17:02:05.258Z,1.50
2023-02-21T17:04:34.117Z,1.55
2023-02-21T17:07:03.812Z,1.70
2023-02-21T17:09:33.688Z,1.73
2023-02-21T17:12:03.203Z,1.65
2023-02-21T17:14:30.167Z,1.40
2023-02-21T17:16:59.595Z,1.55
2023-02-21T17:19:26.750Z,1.90
2023-02-21T17:21:54.048Z,1.95
2023-02-21T17:24:21.024Z,2.17
2023-02-21T17:26:47.870Z,3.53
2023-02-21T17:29:14.683Z,3.38
2023-02-21T17:31:43.604Z,2.88
2023-02-21T17:34:12.968Z,2.78
2023-02-21T17:36:39.940Z,3.20
2023-02-21T17:39:07.056Z,2.70
2023-02-21T17:41:33.967Z,3.10
2023-02-21T17:44:00.887Z,3.08
2023-02-21T17:46:27.815Z,3.45
2023-02-21T17:48:54.878Z,3.58
2023-02-21T17:51:27.049Z,4.22
2023-02-21T17:53:54.482Z,3.83
2023-02-21T17:56:22.626Z,4.65
2023-02-21T17:58:50.038Z,4.50
2023-02-21T18:01:18.900Z,6.25
2023-02-21T18:03:48.796Z,5.97
2023-02-21T18:06:16.026Z,4.80
2023-02-21T18:08:47.770Z,4.47
2023-02-21T18:11:17.183Z,4.00
2023-02-21T18:13:44.740Z,3.83
2023-02-21T18:16:11.763Z,3.55
2023-02-21T18:18:38.824Z,4.35
2023-02-21T18:21:06.360Z,4.43
2023-02-21T18:23:43.609Z,3.97
2023-02-21T18:26:13.198Z,4.00
2023-02-21T18:28:40.132Z,4.68
2023-02-21T18:31:10.004Z,4.47
2023-02-21T18:33:38.621Z,5.78
2023-02-21T18:36:09.324Z,8.13
2023-02-21T18:38:36.195Z,9.15
2023-02-21T18:41:03.233Z,8.05
2023-02-21T18:43:30.612Z,6.47
2023-02-21T18:45:58.523Z,6.90
2023-02-21T18:48:25.991Z,5.57
2023-02-21T18:50:53.220Z,6.13
2023-02-21T18:53:20.439Z,5.50
2023-02-21T18:55:47.374Z,5.15
2023-02-21T18:58:17.289Z,5.10
2023-02-21T19:00:44.412Z,5.20
2023-02-21T19:03:11.849Z,6.43
2023-02-21T19:05:38.765Z,5.70
2023-02-21T19:08:05.779Z,6.55
2023-02-21T19:10:32.743Z,7.00
2023-02-21T19:12:59.697Z,6.53
2023-02-21T19:15:26.822Z,7.07
2023-02-21T19:17:53.637Z,7.88
2023-02-21T19:20:20.798Z,6.00
2023-02-21T19:22:47.967Z,6.75
2023-02-21T19:25:16.637Z,6.60
2023-02-21T19:27:44.091Z,6.18
2023-02-21T19:30:24.402Z,6.40
2023-02-21T19:32:51.196Z,8.27
2023-02-21T19:35:21.969Z,7.80
2023-02-21T19:37:48.753Z,8.82
2023-02-21T19:40:15.708Z,8.95
2023-02-21T19:42:42.449Z,10.38
2023-02-21T19:45:15.534Z,10.07
2023-02-21T19:50:09.552Z,9.25
2023-02-21T19:52:36.355Z,8.75
2023-02-21T19:55:03.787Z,7.88
2023-02-21T19:57:30.622Z,7.22
2023-02-21T19:59:57.484Z,7.60
2023-02-21T20:02:24.314Z,8.13
2023-02-21T20:04:51.140Z,7.78
2023-02-21T20:07:18.193Z,7.43
2023-02-21T20:09:48.329Z,7.20
2023-02-21T20:12:15.108Z,6.88
2023-02-21T20:14:46.175Z,7.28
2023-02-21T20:17:15.150Z,7.40
2023-02-21T20:19:42.333Z,6.80
2023-02-21T20:22:09.183Z,6.40
2023-02-21T20:24:36.236Z,7.00
2023-02-21T20:27:05.821Z,5.95
2023-02-21T20:29:32.666Z,6.30
2023-02-21T20:32:00.251Z,5.88
2023-02-21T20:34:27.744Z,5.80
2023-02-21T20:37:03.300Z,6.13
2023-02-21T20:39:31.781Z,5.78
2023-02-21T20:42:00.702Z,7.50
2023-02-21T20:44:27.963Z,8.63
2023-02-21T20:46:56.846Z,8.13
2023-02-21T20:49:23.682Z,8.77
2023-02-21T20:51:50.673Z,8.93
2023-02-21T20:54:22.164Z,8.05
2023-02-21T20:57:00.092Z,7.63
2023-02-21T20:59:29.575Z,7.07
2023-02-21T21:01:58.120Z,6.70
2023-02-21T21:04:28.190Z,6.68
2023-02-21T21:06:57.170Z,6.65
2023-02-21T21:09:34.459Z,6.88
2023-02-21T21:12:02.774Z,7.25
2023-02-21T21:14:31.341Z,6.70
2023-02-21T21:17:05.565Z,6.28
2023-02-21T21:19:34.630Z,7.45
2023-02-21T21:22:17.537Z,7.95
2023-02-21T21:24:44.463Z,8.82
2023-02-21T21:27:15.796Z,9.57
2023-02-21T21:29:43.807Z,9.13
2023-02-21T21:32:15.895Z,8.90
2023-02-21T21:35:05.214Z,9.68
2023-02-21T21:37:37.075Z,9.80
2023-02-21T21:40:16.894Z,8.82
2023-02-21T21:42:45.663Z,9.20
2023-02-21T21:45:18.715Z,8.32
2023-02-21T21:50:15.708Z,9.32
2023-02-21T21:52:52.842Z,8.23
2023-02-21T21:55:22.272Z,8.38
2023-02-21T21:57:53.537Z,9.25
2023-02-21T22:00:26.196Z,9.48
2023-02-21T22:02:57.464Z,8.80
2023-02-21T22:05:26.502Z,9.52
2023-02-21T22:07:54.053Z,9.10
2023-02-21T22:10:21.464Z,9.85
2023-02-21T22:12:50.154Z,9.35
2023-02-21T22:15:20.112Z,8.82
2023-02-21T22:17:47.629Z,9.65
2023-02-21T22:20:17.857Z,9.02
2023-02-21T22:22:50.583Z,7.05
2023-02-21T22:25:19.230Z,7.30
2023-02-21T22:27:49.696Z,7.45
2023-02-21T22:30:20.930Z,7.75
2023-02-21T22:32:48.518Z,7.82
2023-02-21T22:35:20.744Z,7.45
2023-02-21T22:37:52.039Z,7.07
2023-02-21T22:40:29.983Z,7.75
2023-02-21T22:42:59.556Z,7.97
2023-02-21T22:45:29.151Z,7.43
2023-02-21T22:47:57.744Z,7.70
2023-02-21T22:50:25.519Z,7.47
2023-02-21T22:52:57.673Z,7.10
2023-02-21T22:55:25.949Z,7.23
2023-02-21T22:57:53.552Z,6.95
2023-02-21T23:00:23.048Z,7.00
2023-02-21T23:02:50.925Z,7.50
2023-02-21T23:05:19.868Z,7.70
2023-02-21T23:07:51.377Z,7.18
2023-02-21T23:10:23.769Z,7.40
2023-02-21T23:12:52.046Z,8.13
2023-02-21T23:15:19.340Z,8.02
2023-02-21T23:17:47.095Z,7.32
2023-02-21T23:20:16.821Z,7.90
2023-02-21T23:22:48.791Z,7.68
2023-02-21T23:25:23.143Z,8.07
2023-02-21T23:28:05.807Z,6.43
2023-02-21T23:30:43.531Z,7.90
2023-02-21T23:33:31.076Z,7.75
2023-02-21T23:35:58.302Z,7.45
2023-02-21T23:38:28.311Z,7.97
2023-02-21T23:40:56.725Z,8.35
2023-02-21T23:43:25.455Z,7.63
2023-02-21T23:45:52.970Z,7.10
2023-02-21T23:48:19.789Z,6.60
2023-02-21T23:50:47.432Z,6.75
2023-02-21T23:53:22.788Z,7.07
2023-02-21T23:55:49.739Z,6.43
2023-02-21T23:58:18.791Z,7.25
